Time;durP1;ratioP1;P1;durP2;ratioP2;P2;SDS_P1;SDS_P2;PMS_P1;PMS_P2;Temp;Humidity;BMP_temperature;BMP_pressure;BME280_temperature;BME280_humidity;BME280_pressure;Samples;Min_cycle;Max_cycle;Signal;HPM_P1;HPM_P2
2022/07/12 04:02:13;;;;;;;3.85;3.25;;;12.50;99.90;;;;;;5128094;23;20508;-72
2022/07/12 04:04:39;;;;;;;3.55;2.95;;;12.60;99.90;;;;;;4956524;28;20044;-72
2022/07/12 04:07:05;;;;;;;5.70;3.50;;;12.60;99.90;;;;;;4957576;28;20027;-71
2022/07/12 04:09:31;;;;;;;4.68;3.15;;;12.60;99.90;;;;;;4957915;28;20185;-72
2022/07/12 04:11:57;;;;;;;3.75;3.13;;;12.70;99.90;;;;;;4957631;28;20044;-72
2022/07/12 04:14:23;;;;;;;3.10;2.85;;;12.70;99.90;;;;;;4957944;28;20050;-72
2022/07/12 04:16:48;;;;;;;4.35;3.35;;;12.70;99.90;;;;;;4994932;23;20056;-71
2022/07/12 04:19:14;;;;;;;3.90;3.35;;;12.60;99.90;;;;;;4958357;28;20051;-72
2022/07/12 04:21:39;;;;;;;3.58;3.25;;;12.70;99.90;;;;;;4958146;28;20042;-72
2022/07/12 04:24:05;;;;;;;4.55;3.63;;;12.70;99.90;;;;;;4958129;28;20485;-72
2022/07/12 04:26:31;;;;;;;3.80;3.33;;;12.70;99.90;;;;;;4956481;28;20032;-71
2022/07/12 04:28:57;;;;;;;3.97;3.35;;;12.80;99.90;;;;;;4958196;28;20487;-72
2022/07/12 04:31:23;;;;;;;3.88;3.25;;;12.80;99.90;;;;;;4956647;28;20040;-71
2022/07/12 04:33:49;;;;;;;4.55;3.47;;;12.90;99.90;;;;;;4958002;28;20087;-72
2022/07/12 04:36:15;;;;;;;3.53;3.22;;;12.90;99.90;;;;;;4957608;28;20450;-71
2022/07/12 04:38:40;;;;;;;3.67;3.20;;;12.90;99.90;;;;;;4957970;28;20046;-71
2022/07/12 04:41:06;;;;;;;5.50;3.50;;;12.90;99.90;;;;;;4957817;28;20389;-72
2022/07/12 04:43:32;;;;;;;4.07;3.38;;;12.90;99.90;;;;;;4958599;28;20036;-71
2022/07/12 04:46:06;;;;;;;5.57;3.88;;;12.90;99.90;;;;;;4957496;28;20094;-71
2022/07/12 04:48:31;;;;;;;6.40;3.90;;;12.90;99.90;;;;;;4957686;28;20036;-72
2022/07/12 04:50:57;;;;;;;5.30;3.60;;;13.00;99.90;;;;;;4957430;28;20039;-73
2022/07/12 04:53:22;;;;;;;4.90;3.55;;;13.00;99.90;;;;;;4957435;28;20035;-72
2022/07/12 04:55:48;;;;;;;4.28;3.78;;;13.10;99.90;;;;;;4956860;28;20032;-73
2022/07/12 04:58:14;;;;;;;4.90;3.80;;;13.10;99.90;;;;;;4957371;28;20490;-73
2022/07/12 05:00:40;;;;;;;5.47;3.88;;;13.20;99.90;;;;;;4956731;28;20522;-73
2022/07/12 05:03:05;;;;;;;3.97;3.40;;;13.20;99.90;;;;;;4957343;28;20130;-72
2022/07/12 05:05:31;;;;;;;4.05;3.35;;;13.30;99.90;;;;;;4956941;28;20505;-72
2022/07/12 05:07:56;;;;;;;5.45;3.53;;;13.40;99.90;;;;;;4957024;28;20485;-73
2022/07/12 05:10:22;;;;;;;6.68;4.28;;;13.50;99.90;;;;;;4957343;28;20043;-73
2022/07/12 05:12:47;;;;;;;5.07;3.38;;;13.60;99.90;;;;;;4957254;28;20051;-72
2022/07/12 05:15:13;;;;;;;4.32;3.67;;;13.70;99.90;;;;;;4956606;28;20501;-72
2022/07/12 05:17:38;;;;;;;4.93;4.00;;;13.80;99.90;;;;;;4956853;28;20565;-72
2022/07/12 05:20:04;;;;;;;6.03;4.00;;;13.90;99.90;;;;;;4957079;28;20046;-72
2022/07/12 05:22:30;;;;;;;4.65;4.22;;;14.00;99.90;;;;;;4957293;28;20031;-72
2022/07/12 05:24:55;;;;;;;5.13;3.42;;;14.10;99.90;;;;;;4956973;28;20036;-72
2022/07/12 05:27:21;;;;;;;6.22;3.85;;;14.20;99.90;;;;;;4956716;28;20047;-71
2022/07/12 05:29:46;;;;;;;4.40;3.75;;;14.30;99.90;;;;;;4956655;28;20083;-72
2022/07/12 05:32:12;;;;;;;5.05;3.92;;;14.40;99.90;;;;;;4955114;28;20087;-72
2022/07/12 05:34:38;;;;;;;6.30;4.00;;;14.40;99.90;;;;;;4956720;28;20040;-72
2022/07/12 05:37:04;;;;;;;5.63;3.47;;;14.70;99.90;;;;;;4956281;28;20047;-73
2022/07/12 05:39:29;;;;;;;4.93;3.60;;;14.80;99.90;;;;;;4957063;28;20036;-73
2022/07/12 05:41:55;;;;;;;4.22;3.83;;;14.80;99.90;;;;;;4955210;28;20040;-73
2022/07/12 05:44:22;;;;;;;3.83;3.50;;;14.90;99.90;;;;;;4956811;28;20035;-73
2022/07/12 05:46:48;;;;;;;4.68;3.75;;;15.00;99.90;;;;;;4956072;28;20486;-71
2022/07/12 05:49:14;;;;;;;9.48;4.70;;;15.10;99.90;;;;;;4956659;28;20051;-71
2022/07/12 05:54:23;;;;;;;4.55;3.60;;;15.30;99.90;;;;;;4956579;28;20039;-73
2022/07/12 05:56:50;;;;;;;3.58;3.10;;;15.50;99.90;;;;;;4956036;28;20414;-72
2022/07/12 05:59:17;;;;;;;3.63;3.05;;;15.50;99.90;;;;;;4956427;28;20636;-73
2022/07/12 06:01:42;;;;;;;5.40;3.40;;;15.60;99.90;;;;;;4956283;28;20126;-73
2022/07/12 06:04:08;;;;;;;3.90;3.05;;;15.60;99.90;;;;;;4956424;28;20036;-72
2022/07/12 06:06:34;;;;;;;3.55;3.25;;;15.70;99.90;;;;;;4955902;28;20082;-73
2022/07/12 06:08:59;;;;;;;4.03;2.95;;;15.90;99.90;;;;;;4955981;28;20481;-73
2022/07/12 06:11:25;;;;;;;4.35;2.78;;;15.90;99.90;;;;;;4954698;28;20032;-73
2022/07/12 06:13:50;;;;;;;3.45;3.15;;;16.00;99.90;;;;;;4959076;28;20142;-73
2022/07/12 06:16:16;;;;;;;3.40;2.70;;;16.00;99.90;;;;;;4958753;28;20514;-73
2022/07/12 06:18:42;;;;;;;3.03;2.72;;;16.20;99.90;;;;;;4958172;28;20035;-72
2022/07/12 06:21:08;;;;;;;2.88;2.47;;;16.20;99.90;;;;;;4958195;28;20087;-73
2022/07/12 06:23:33;;;;;;;5.10;2.97;;;16.40;99.90;;;;;;4959514;28;20107;-73
2022/07/12 06:25:59;;;;;;;2.50;2.30;;;16.40;99.90;;;;;;4959142;28;20048;-73
2022/07/12 06:28:24;;;;;;;2.80;2.60;;;16.50;99.90;;;;;;4959337;28;20039;-73
2022/07/12 06:30:50;;;;;;;3.50;2.10;;;16.50;99.90;;;;;;4959478;28;20044;-73
2022/07/12 06:33:15;;;;;;;3.45;2.55;;;16.70;99.90;;;;;;4959527;28;20040;-73
2022/07/12 06:35:41;;;;;;;2.22;2.03;;;16.80;99.90;;;;;;4958749;28;20040;-73
2022/07/12 06:38:06;;;;;;;2.28;2.08;;;16.90;99.90;;;;;;4957922;28;20047;-73
2022/07/12 06:40:32;;;;;;;2.17;1.98;;;17.00;99.90;;;;;;4957759;28;20031;-73
2022/07/12 06:42:57;;;;;;;6.15;2.15;;;17.10;99.90;;;;;;4959023;28;20078;-73
2022/07/12 06:45:24;;;;;;;3.28;1.90;;;17.20;99.90;;;;;;4958975;28;20095;-72
2022/07/12 06:47:50;;;;;;;1.92;1.42;;;17.40;99.90;;;;;;4959037;28;20487;-72
2022/07/12 06:50:16;;;;;;;2.92;1.75;;;17.60;99.90;;;;;;4958932;28;20043;-73
2022/07/12 06:52:41;;;;;;;3.47;1.40;;;17.70;99.90;;;;;;4959252;28;20040;-73
2022/07/12 06:55:08;;;;;;;5.68;1.33;;;17.80;99.90;;;;;;4958966;28;20059;-73
2022/07/12 06:57:34;;;;;;;3.08;1.80;;;18.00;99.90;;;;;;4958405;28;20036;-73
2022/07/12 07:00:00;;;;;;;2.38;1.40;;;18.10;99.90;;;;;;4959026;28;20038;-73
2022/07/12 07:02:26;;;;;;;1.60;1.40;;;18.20;99.90;;;;;;4959089;28;20139;-71
2022/07/12 07:04:52;;;;;;;1.60;1.20;;;18.30;99.90;;;;;;4957473;28;20142;-72
2022/07/12 07:07:17;;;;;;;1.65;1.38;;;18.40;99.90;;;;;;4958817;28;20036;-72
2022/07/12 07:09:43;;;;;;;2.50;1.30;;;18.50;99.90;;;;;;4959020;28;20386;-73
2022/07/12 07:12:09;;;;;;;1.30;1.20;;;18.70;99.90;;;;;;4958619;28;20040;-73
2022/07/12 07:14:35;;;;;;;1.70;1.10;;;18.70;99.90;;;;;;4958838;28;20102;-73
2022/07/12 07:17:00;;;;;;;1.17;1.08;;;18.90;99.90;;;;;;4957968;28;20118;-73
2022/07/12 07:19:26;;;;;;;1.80;1.23;;;19.10;99.90;;;;;;4958779;28;20031;-71
2022/07/12 07:21:55;;;;;;;0.82;0.82;;;19.20;99.90;;;;;;4958691;28;20027;-71
2022/07/12 07:24:20;;;;;;;0.80;0.77;;;19.40;99.90;;;;;;4957733;28;20031;-72
2022/07/12 07:26:46;;;;;;;1.13;0.80;;;19.60;99.90;;;;;;4957763;28;20054;-71
2022/07/12 07:31:56;;;;;;;1.10;1.00;;;19.90;99.90;;;;;;4958864;28;20040;-72
2022/07/12 07:34:23;;;;;;;1.17;0.85;;;20.20;99.90;;;;;;4958470;28;20036;-72
2022/07/12 07:36:50;;;;;;;1.33;0.82;;;20.40;99.90;;;;;;4956728;28;20048;-71
2022/07/12 07:39:16;;;;;;;0.85;0.73;;;20.80;99.90;;;;;;4958269;28;20090;-71
2022/07/12 07:41:41;;;;;;;0.50;0.50;;;20.80;99.90;;;;;;4958618;28;20106;-71
2022/07/12 07:44:07;;;;;;;1.05;0.60;;;21.10;99.90;;;;;;4957946;28;20450;-72
2022/07/12 07:46:33;;;;;;;1.75;0.80;;;21.40;99.90;;;;;;4957650;28;20036;-71
2022/07/12 07:48:58;;;;;;;1.73;0.70;;;21.40;99.90;;;;;;4958396;28;20042;-71
2022/07/12 07:51:24;;;;;;;2.35;0.80;;;21.80;99.90;;;;;;4958442;28;20052;-71
2022/07/12 07:53:49;;;;;;;0.95;0.77;;;21.90;99.90;;;;;;4958246;28;20035;-71
2022/07/12 07:56:15;;;;;;;2.67;0.70;;;22.00;99.90;;;;;;4957677;28;20044;-71
2022/07/12 07:58:40;;;;;;;4.80;0.82;;;22.10;99.30;;;;;;4958586;28;20474;-71
2022/07/12 08:01:06;;;;;;;1.95;0.70;;;22.30;99.40;;;;;;4957975;28;20041;-72
2022/07/12 08:03:32;;;;;;;0.73;0.60;;;22.60;98.10;;;;;;4958346;28;20114;-71
2022/07/12 08:05:58;;;;;;;0.60;0.60;;;22.60;97.20;;;;;;4956288;28;20042;-71
2022/07/12 08:08:24;;;;;;;0.90;0.60;;;22.80;97.40;;;;;;4956734;28;20482;-71
2022/07/12 08:10:50;;;;;;;0.82;0.50;;;22.90;96.00;;;;;;4956802;28;20059;-72
2022/07/12 08:13:16;;;;;;;0.50;0.50;;;22.90;94.60;;;;;;4956372;28;20051;-71
2022/07/12 08:15:42;;;;;;;0.55;0.52;;;23.10;94.40;;;;;;4957059;28;20044;-72
2022/07/12 08:18:08;;;;;;;0.50;0.50;;;23.10;93.50;;;;;;4957745;28;20061;-72
2022/07/12 08:20:33;;;;;;;0.73;0.52;;;23.20;94.00;;;;;;4957914;28;20036;-72
2022/07/12 08:22:59;;;;;;;0.80;0.50;;;23.20;93.60;;;;;;4957594;28;20063;-72
2022/07/12 08:25:25;;;;;;;0.65;0.45;;;23.10;92.70;;;;;;4957416;28;20054;-71
2022/07/12 08:27:50;;;;;;;0.95;0.52;;;23.40;93.80;;;;;;4957816;28;20123;-71
2022/07/12 08:30:16;;;;;;;2.38;0.60;;;23.70;92.30;;;;;;4957896;28;20486;-71
2022/07/12 08:32:45;;;;;;;0.50;0.50;;;24.00;92.20;;;;;;4957649;28;20044;-71
2022/07/12 08:35:11;;;;;;;0.50;0.50;;;24.50;90.80;;;;;;4955596;28;20107;-71
2022/07/12 08:37:36;;;;;;;1.08;0.60;;;24.90;90.30;;;;;;4956673;28;20044;-72
2022/07/12 08:40:03;;;;;;;0.90;0.70;;;25.40;88.50;;;;;;4958073;28;20035;-72
2022/07/12 08:42:29;;;;;;;0.73;0.60;;;25.40;89.20;;;;;;4956034;28;20043;-72
2022/07/12 08:44:56;;;;;;;0.50;0.50;;;25.80;86.50;;;;;;4955882;28;20086;-72
2022/07/12 08:47:22;;;;;;;0.95;0.70;;;25.90;86.40;;;;;;4956274;28;20053;-72
2022/07/12 08:50:12;;;;;;;0.50;0.50;;;25.50;83.90;;;;;;4958070;28;20043;-72
2022/07/12 08:52:40;;;;;;;1.50;0.60;;;25.70;83.20;;;;;;4956158;28;20071;-73
2022/07/12 08:55:33;;;;;;;0.40;0.40;;;25.50;85.40;;;;;;4956307;28;20039;-72
2022/07/12 08:58:02;;;;;;;0.60;0.45;;;25.50;82.50;;;;;;4957970;28;20044;-72
2022/07/12 09:00:29;;;;;;;0.70;0.50;;;26.10;81.80;;;;;;4955913;28;20065;-72
2022/07/12 09:02:56;;;;;;;0.50;0.50;;;26.00;79.70;;;;;;4957232;28;20114;-72
2022/07/12 09:05:23;;;;;;;0.88;0.43;;;25.40;80.60;;;;;;4955835;28;20036;-72
2022/07/12 09:07:50;;;;;;;0.50;0.50;;;25.00;82.50;;;;;;4957400;28;20051;-72
2022/07/12 09:10:16;;;;;;;0.50;0.50;;;25.50;79.30;;;;;;4957692;28;20032;-72
2022/07/12 09:12:42;;;;;;;0.82;0.50;;;26.20;81.30;;;;;;4957840;28;20047;-72
2022/07/12 09:15:22;;;;;;;0.95;0.55;;;26.40;77.50;;;;;;4956294;28;20043;-72
2022/07/12 09:18:00;;;;;;;0.50;0.50;;;26.60;75.60;;;;;;4957238;28;20114;-73
2022/07/12 09:20:27;;;;;;;1.33;0.50;;;26.70;75.60;;;;;;4956355;28;20039;-73
2022/07/12 09:22:58;;;;;;;0.40;0.40;;;26.50;74.20;;;;;;4957469;28;20122;-73
2022/07/12 09:25:23;;;;;;;0.60;0.40;;;26.50;77.50;;;;;;4956802;28;20032;-72
2022/07/12 09:27:59;;;;;;;1.15;0.52;;;26.40;74.20;;;;;;4957238;28;20032;-73
2022/07/12 09:30:28;;;;;;;1.33;0.50;;;26.50;76.80;;;;;;4956870;28;20031;-73
2022/07/12 09:36:17;;;;;;;0.60;0.60;;;25.80;79.60;;;;;;4957015;28;20039;-73
2022/07/12 09:38:49;;;;;;;0.75;0.55;;;25.70;81.50;;;;;;4957757;28;20040;-73
2022/07/12 09:41:20;;;;;;;0.77;0.60;;;25.70;81.40;;;;;;4957454;28;20126;-73
2022/07/12 09:43:46;;;;;;;0.68;0.68;;;25.10;80.10;;;;;;4957463;28;20118;-73
2022/07/12 09:46:14;;;;;;;0.60;0.60;;;24.50;80.90;;;;;;4957012;28;20036;-72
2022/07/12 09:48:41;;;;;;;1.17;0.70;;;24.00;83.60;;;;;;4956445;28;20044;-73
2022/07/12 09:51:08;;;;;;;1.48;0.50;;;23.60;84.20;;;;;;4955311;28;20112;-73
2022/07/12 09:53:45;;;;;;;0.50;0.50;;;23.30;85.00;;;;;;4956518;28;20071;-72
2022/07/12 09:56:13;;;;;;;0.60;0.60;;;23.40;86.40;;;;;;4956358;28;20035;-72
2022/07/12 09:58:59;;;;;;;0.60;0.60;;;23.70;85.40;;;;;;4956846;28;20147;-73
2022/07/12 10:01:25;;;;;;;0.45;0.45;;;24.60;83.40;;;;;;4955482;28;20035;-73
2022/07/12 10:03:52;;;;;;;0.73;0.52;;;25.00;79.60;;;;;;4956938;28;20040;-73
2022/07/12 10:06:25;;;;;;;0.60;0.60;;;24.80;78.50;;;;;;4956784;28;20038;-73
2022/07/12 10:08:51;;;;;;;0.50;0.50;;;24.30;79.20;;;;;;4956935;28;20024;-73
2022/07/12 10:11:18;;;;;;;0.70;0.70;;;24.20;80.90;;;;;;4957043;28;20046;-73
2022/07/12 10:13:44;;;;;;;0.55;0.55;;;24.80;80.00;;;;;;4956757;28;20557;-73
2022/07/12 10:16:12;;;;;;;0.50;0.50;;;25.50;77.30;;;;;;4977136;23;20142;-71
2022/07/12 10:18:37;;;;;;;0.70;0.60;;;25.70;76.50;;;;;;4955907;28;20071;-72
2022/07/12 10:21:19;;;;;;;1.30;0.52;;;25.40;75.90;;;;;;4955783;28;20089;-72
2022/07/12 10:23:44;;;;;;;0.70;0.55;;;25.10;78.50;;;;;;4955888;28;20043;-72
2022/07/12 10:26:16;;;;;;;0.47;0.47;;;25.30;77.50;;;;;;4955639;28;20095;-72
2022/07/12 10:28:56;;;;;;;0.63;0.52;;;25.30;77.80;;;;;;4955975;28;20177;-72
2022/07/12 10:31:25;;;;;;;0.60;0.52;;;25.30;79.10;;;;;;4956140;28;20036;-72
2022/07/12 10:34:13;;;;;;;0.65;0.55;;;25.80;75.90;;;;;;4956024;28;20046;-72
2022/07/12 10:36:56;;;;;;;0.50;0.50;;;26.20;74.60;;;;;;4955658;28;20032;-73
2022/07/12 10:39:28;;;;;;;0.88;0.50;;;26.60;73.40;;;;;;4955981;28;20031;-72
2022/07/12 10:42:17;;;;;;;1.73;0.45;;;26.80;72.60;;;;;;4956062;28;20180;-72
2022/07/12 10:44:45;;;;;;;0.70;0.70;;;27.00;71.70;;;;;;4955337;28;20043;-72
2022/07/12 10:47:15;;;;;;;0.52;0.52;;;27.10;74.10;;;;;;4955321;28;20076;-73
2022/07/12 10:49:52;;;;;;;3.63;0.63;;;26.90;70.90;;;;;;4956017;28;20549;-72
2022/07/12 10:52:24;;;;;;;0.60;0.52;;;26.60;73.00;;;;;;4955827;28;20568;-72
2022/07/12 10:54:50;;;;;;;0.50;0.50;;;26.10;72.00;;;;;;4955693;28;20043;-72
2022/07/12 10:57:36;;;;;;;1.02;0.68;;;26.30;78.10;;;;;;4955203;28;20074;-73
2022/07/12 11:00:03;;;;;;;0.73;0.57;;;26.60;72.80;;;;;;4956978;28;20046;-73
2022/07/12 11:02:30;;;;;;;0.98;0.45;;;26.50;72.80;;;;;;4958863;28;20078;-72
2022/07/12 11:04:56;;;;;;;0.50;0.50;;;26.10;72.30;;;;;;4957361;28;20040;-72
2022/07/12 11:07:24;;;;;;;0.63;0.50;;;25.50;73.80;;;;;;4958211;28;20036;-72
2022/07/12 11:09:52;;;;;;;0.47;0.47;;;25.20;75.40;;;;;;4958668;28;20031;-72
2022/07/12 11:12:18;;;;;;;0.52;0.40;;;25.50;75.10;;;;;;4958397;28;20059;-72
2022/07/12 11:14:45;;;;;;;0.60;0.60;;;26.00;75.20;;;;;;4958614;28;20039;-73
2022/07/12 11:17:11;;;;;;;0.98;0.50;;;26.80;72.50;;;;;;4957731;28;20044;-73
2022/07/12 11:19:37;;;;;;;0.43;0.43;;;27.60;70.50;;;;;;4958799;28;20032;-73
2022/07/12 11:22:02;;;;;;;0.40;0.40;;;28.10;68.80;;;;;;4958575;28;20039;-73
2022/07/12 11:24:30;;;;;;;0.60;0.50;;;28.60;67.90;;;;;;4958396;28;20414;-73
2022/07/12 11:26:57;;;;;;;0.80;0.80;;;28.60;69.80;;;;;;4956614;28;20039;-72
2022/07/12 11:29:25;;;;;;;0.50;0.50;;;28.30;68.00;;;;;;4958514;28;20378;-73
2022/07/12 11:32:00;;;;;;;0.95;0.50;;;28.90;65.10;;;;;;4958471;28;20040;-73
2022/07/12 11:34:26;;;;;;;0.88;0.60;;;28.80;68.10;;;;;;4958403;28;20095;-73
2022/07/12 11:37:00;;;;;;;1.17;0.60;;;29.30;64.30;;;;;;4957959;28;20043;-73
2022/07/12 11:39:45;;;;;;;1.40;0.80;;;29.30;63.60;;;;;;4958225;28;20032;-73
2022/07/12 11:42:11;;;;;;;1.02;0.57;;;29.40;63.20;;;;;;4958596;28;20031;-73
2022/07/12 11:44:50;;;;;;;0.60;0.60;;;29.70;62.80;;;;;;4958285;28;20031;-73
2022/07/12 11:47:18;;;;;;;1.00;0.70;;;29.70;61.80;;;;;;4957571;28;20032;-73
2022/07/12 11:49:49;;;;;;;0.73;0.50;;;29.70;62.60;;;;;;4958230;28;20156;-73
2022/07/12 11:52:17;;;;;;;2.20;0.70;;;30.10;61.70;;;;;;4958085;28;20067;-73
2022/07/12 11:54:43;;;;;;;0.57;0.57;;;30.00;59.50;;;;;;4957973;28;20032;-73
2022/07/12 11:57:10;;;;;;;0.60;0.52;;;29.70;60.70;;;;;;4957697;28;20035;-73
2022/07/12 11:59:36;;;;;;;0.50;0.50;;;29.60;64.30;;;;;;4957712;28;20031;-72
2022/07/12 12:02:13;;;;;;;0.50;0.50;;;29.40;61.90;;;;;;4958144;28;20450;-73
2022/07/12 12:04:54;;;;;;;1.17;0.50;;;29.10;61.80;;;;;;4958036;28;20032;-73
2022/07/12 12:07:21;;;;;;;0.50;0.50;;;29.30;62.40;;;;;;4957383;28;20038;-73
2022/07/12 12:10:15;;;;;;;2.22;0.68;;;29.60;60.90;;;;;;4956608;28;20074;-72
2022/07/12 12:12:45;;;;;;;1.00;0.70;;;30.10;64.90;;;;;;4957735;28;20110;-73
2022/07/12 12:15:13;;;;;;;0.90;0.60;;;30.60;61.00;;;;;;4956181;28;20043;-72
2022/07/12 12:18:05;;;;;;;0.55;0.55;;;30.50;59.20;;;;;;4957491;28;20122;-73
2022/07/12 12:20:33;;;;;;;0.60;0.60;;;30.20;58.60;;;;;;4957782;28;20031;-72
2022/07/12 12:23:00;;;;;;;0.52;0.52;;;30.10;60.50;;;;;;4957550;28;20040;-73
2022/07/12 12:25:28;;;;;;;0.85;0.60;;;30.00;60.10;;;;;;4957126;28;20066;-73
2022/07/12 12:28:00;;;;;;;0.88;0.40;;;29.80;60.90;;;;;;4957563;28;20046;-73
2022/07/12 12:30:27;;;;;;;0.60;0.55;;;30.30;59.20;;;;;;4957478;28;20039;-73
2022/07/12 12:32:56;;;;;;;1.30;0.50;;;30.40;57.50;;;;;;4957496;28;20521;-73
2022/07/12 12:35:42;;;;;;;6.82;1.10;;;30.30;58.00;;;;;;4956868;28;20044;-73
2022/07/12 12:38:15;;;;;;;4.25;0.60;;;30.20;60.10;;;;;;4956834;28;20051;-73
2022/07/12 12:40:50;;;;;;;1.08;0.68;;;30.20;57.80;;;;;;4955919;28;20107;-73
2022/07/12 12:43:20;;;;;;;1.40;0.75;;;30.30;61.30;;;;;;4957478;28;20028;-73
2022/07/12 12:45:50;;;;;;;0.82;0.60;;;30.50;58.50;;;;;;4956871;28;20043;-71
2022/07/12 12:48:21;;;;;;;1.23;0.70;;;30.50;59.00;;;;;;4957318;28;20074;-71
2022/07/12 12:50:49;;;;;;;2.25;0.50;;;30.40;59.50;;;;;;4957263;28;20032;-71
2022/07/12 12:53:24;;;;;;;0.93;0.68;;;30.70;58.60;;;;;;4957268;28;20482;-71
2022/07/12 12:55:52;;;;;;;0.70;0.70;;;30.70;58.80;;;;;;4956545;28;20118;-71
2022/07/12 12:58:19;;;;;;;2.05;0.60;;;30.60;57.20;;;;;;4957147;28;20055;-71
2022/07/12 13:00:47;;;;;;;0.90;0.70;;;30.90;60.40;;;;;;4956989;28;20060;-71
2022/07/12 13:03:15;;;;;;;0.50;0.50;;;31.20;58.20;;;;;;4955555;28;20067;-71
2022/07/12 13:05:40;;;;;;;2.20;0.70;;;31.10;55.90;;;;;;4956418;28;20042;-72
2022/07/12 13:08:08;;;;;;;0.80;0.45;;;31.00;56.30;;;;;;4956952;28;20042;-73
2022/07/12 13:10:35;;;;;;;1.58;0.70;;;30.80;56.30;;;;;;4957042;28;20036;-73
2022/07/12 13:13:03;;;;;;;1.73;0.60;;;31.00;59.40;;;;;;4957057;28;20485;-71
2022/07/12 13:15:30;;;;;;;0.70;0.50;;;31.10;54.80;;;;;;4956153;28;20047;-71
2022/07/12 13:17:56;;;;;;;1.60;0.50;;;31.10;58.00;;;;;;4956868;28;20131;-71
2022/07/12 13:20:24;;;;;;;0.65;0.50;;;31.40;57.60;;;;;;4957012;28;20063;-71
2022/07/12 13:22:49;;;;;;;0.52;0.52;;;31.80;55.20;;;;;;4955596;28;20044;-71
2022/07/12 13:25:15;;;;;;;0.82;0.60;;;32.40;55.40;;;;;;4956632;28;20514;-71
2022/07/12 13:27:42;;;;;;;1.48;0.60;;;32.30;52.30;;;;;;4956584;28;20409;-71
2022/07/12 13:30:10;;;;;;;1.05;0.70;;;32.70;52.20;;;;;;4956708;28;20032;-71
2022/07/12 13:32:37;;;;;;;0.63;0.63;;;33.50;53.70;;;;;;4956840;28;20040;-71
2022/07/12 13:35:04;;;;;;;0.60;0.60;;;34.10;51.90;;;;;;4956644;28;20115;-71
2022/07/12 13:37:30;;;;;;;0.70;0.65;;;33.70;54.30;;;;;;4956077;28;20502;-71
2022/07/12 13:40:10;;;;;;;1.27;0.70;;;34.60;50.90;;;;;;4956569;28;20039;-71
2022/07/12 13:42:56;;;;;;;1.60;0.70;;;35.20;51.80;;;;;;4956445;28;20035;-71
2022/07/12 13:45:25;;;;;;;0.60;0.60;;;35.30;50.30;;;;;;4955522;28;20561;-71
2022/07/12 13:47:52;;;;;;;0.60;0.60;;;36.40;48.60;;;;;;4954615;28;20039;-71
2022/07/12 13:50:19;;;;;;;0.85;0.70;;;37.40;47.90;;;;;;4956527;28;20051;-72
2022/07/12 13:52:46;;;;;;;0.80;0.80;;;37.00;45.50;;;;;;4956359;28;20036;-71
2022/07/12 13:55:13;;;;;;;0.77;0.70;;;36.30;45.70;;;;;;4955971;28;20035;-71
2022/07/12 13:57:40;;;;;;;0.70;0.70;;;36.00;47.40;;;;;;4956382;28;20072;-71
2022/07/12 14:00:10;;;;;;;0.70;0.70;;;36.40;46.00;;;;;;4956295;28;20035;-72
2022/07/12 14:02:37;;;;;;;0.70;0.70;;;37.00;46.10;;;;;;4956029;28;20107;-72
2022/07/12 14:05:04;;;;;;;2.17;0.60;;;36.40;45.00;;;;;;4956387;28;20416;-72
2022/07/12 14:07:31;;;;;;;2.50;0.90;;;37.20;43.50;;;;;;4955968;28;20031;-72
2022/07/12 14:09:56;;;;;;;0.93;0.80;;;37.00;44.90;;;;;;4956449;28;20047;-72
2022/07/12 14:12:22;;;;;;;0.70;0.70;;;38.30;43.40;;;;;;4956666;28;20035;-72
2022/07/12 14:17:33;;;;;;;2.10;0.77;;;38.20;41.90;;;;;;4956021;28;20509;-72
2022/07/12 14:19:59;;;;;;;0.95;0.60;;;39.00;40.10;;;;;;4956438;28;20060;-72
2022/07/12 14:22:25;;;;;;;1.70;0.80;;;39.50;41.90;;;;;;4956497;28;20036;-72
2022/07/12 14:24:50;;;;;;;0.68;0.68;;;39.80;43.00;;;;;;4956747;28;20505;-72
2022/07/12 14:27:16;;;;;;;1.05;0.70;;;39.90;43.50;;;;;;4955639;28;20399;-72
2022/07/12 14:29:41;;;;;;;1.10;0.77;;;40.10;41.60;;;;;;4955953;28;20036;-72
2022/07/12 14:32:07;;;;;;;0.80;0.80;;;40.40;41.60;;;;;;4956481;28;20035;-72
2022/07/12 14:34:32;;;;;;;0.75;0.75;;;39.90;38.90;;;;;;4958468;28;20519;-72
2022/07/12 14:36:58;;;;;;;1.20;0.90;;;40.90;38.40;;;;;;4957411;28;20524;-72
2022/07/12 14:39:23;;;;;;;1.08;0.98;;;40.80;39.10;;;;;;4957979;28;20032;-72
2022/07/12 14:41:49;;;;;;;1.13;0.88;;;39.80;39.40;;;;;;4959304;28;20039;-72
2022/07/12 14:44:15;;;;;;;0.80;0.80;;;40.10;38.10;;;;;;4959022;28;20119;-72
2022/07/12 14:46:40;;;;;;;1.77;0.82;;;40.00;39.80;;;;;;4958615;28;20485;-72
2022/07/12 14:49:06;;;;;;;0.90;0.90;;;41.10;37.80;;;;;;4957617;28;20511;-72
2022/07/12 14:51:31;;;;;;;2.22;1.02;;;40.70;37.70;;;;;;4959232;28;20477;-73
2022/07/12 14:53:57;;;;;;;1.00;0.88;;;42.00;35.80;;;;;;4959110;28;20584;-73
2022/07/12 14:56:22;;;;;;;1.05;0.95;;;41.80;40.90;;;;;;4958676;28;20028;-73
2022/07/12 14:58:48;;;;;;;0.90;0.90;;;41.60;35.40;;;;;;4958924;28;20038;-73
2022/07/12 15:01:13;;;;;;;1.08;1.00;;;40.80;36.00;;;;;;4959016;28;20103;-73
2022/07/12 15:03:39;;;;;;;1.00;1.00;;;41.40;36.40;;;;;;4958982;28;20495;-73
2022/07/12 15:06:05;;;;;;;2.30;1.10;;;42.60;36.30;;;;;;4958278;28;20035;-73
2022/07/12 15:08:31;;;;;;;1.10;1.00;;;42.40;36.50;;;;;;4958887;28;20036;-73
2022/07/12 15:10:57;;;;;;;0.80;0.80;;;41.60;35.30;;;;;;4958847;28;20031;-73
2022/07/12 15:13:23;;;;;;;1.38;1.20;;;41.50;36.70;;;;;;4958555;28;20095;-73
2022/07/12 15:15:49;;;;;;;1.00;1.00;;;42.60;35.20;;;;;;4958217;28;20122;-73
2022/07/12 15:18:15;;;;;;;1.10;1.00;;;42.30;35.90;;;;;;4958895;28;20032;-73
2022/07/12 15:20:40;;;;;;;2.15;1.40;;;42.80;38.60;;;;;;4958995;28;20040;-74
2022/07/12 15:23:06;;;;;;;1.45;1.20;;;42.90;35.50;;;;;;4958824;28;20575;-73
2022/07/12 15:25:32;;;;;;;1.60;1.25;;;43.20;33.40;;;;;;4958134;28;20039;-73
2022/07/12 15:27:58;;;;;;;2.17;1.20;;;42.40;35.20;;;;;;4958394;28;20134;-73
2022/07/12 15:30:23;;;;;;;1.63;1.10;;;41.90;35.50;;;;;;4958807;28;20078;-73
2022/07/12 15:32:49;;;;;;;1.23;1.17;;;41.80;34.20;;;;;;4958543;28;20127;-73
2022/07/12 15:35:15;;;;;;;0.95;0.95;;;42.20;33.90;;;;;;4958371;28;20035;-74
2022/07/12 15:37:40;;;;;;;0.98;0.98;;;41.90;35.50;;;;;;4956889;28;20046;-74
2022/07/12 15:40:06;;;;;;;2.67;1.00;;;41.90;35.90;;;;;;4957029;28;20372;-74
2022/07/12 15:42:32;;;;;;;2.47;1.20;;;42.60;34.60;;;;;;4957981;28;20123;-74
2022/07/12 15:44:58;;;;;;;1.05;0.98;;;43.10;37.20;;;;;;4957826;28;20031;-74
2022/07/12 15:47:23;;;;;;;1.20;1.10;;;41.90;33.90;;;;;;4957833;28;20564;-74
2022/07/12 15:49:49;;;;;;;1.05;1.00;;;42.40;34.60;;;;;;4956920;28;20054;-74
2022/07/12 15:54:59;;;;;;;1.50;1.00;;;42.10;34.50;;;;;;4958924;28;20115;-74
2022/07/12 15:57:25;;;;;;;1.65;1.00;;;42.10;35.20;;;;;;4956673;28;20114;-74
2022/07/12 15:59:51;;;;;;;1.23;0.98;;;42.40;34.50;;;;;;4958649;28;20371;-74
2022/07/12 16:02:16;;;;;;;1.50;0.90;;;42.00;34.10;;;;;;4958526;28;20042;-74
2022/07/12 16:04:42;;;;;;;1.83;1.05;;;42.50;36.80;;;;;;4958255;28;20110;-74
2022/07/12 16:07:09;;;;;;;0.90;0.90;;;42.80;33.10;;;;;;4957778;28;20078;-74
2022/07/12 16:09:35;;;;;;;1.52;0.90;;;43.00;32.60;;;;;;4956675;28;20031;-74
2022/07/12 16:12:00;;;;;;;3.00;1.75;;;43.00;33.30;;;;;;4958524;28;20047;-74
2022/07/12 16:14:28;;;;;;;2.88;2.00;;;43.40;32.80;;;;;;4956795;28;20031;-74
2022/07/12 16:16:54;;;;;;;1.67;1.00;;;43.70;32.40;;;;;;4957979;28;20039;-74
2022/07/12 16:19:20;;;;;;;2.88;1.10;;;43.80;32.10;;;;;;4958091;28;20043;-74
2022/07/12 16:21:45;;;;;;;1.80;1.10;;;43.50;33.30;;;;;;4957941;28;20405;-74
2022/07/12 16:24:11;;;;;;;1.90;1.00;;;43.60;32.70;;;;;;4956107;28;20060;-74
2022/07/12 16:26:36;;;;;;;1.98;1.00;;;43.30;32.30;;;;;;4957335;28;20043;-74
2022/07/12 16:29:02;;;;;;;1.67;1.00;;;43.00;33.00;;;;;;4957730;28;20379;-74
2022/07/12 16:31:28;;;;;;;1.80;1.00;;;42.30;32.80;;;;;;4957812;28;20494;-74
2022/07/12 16:33:53;;;;;;;0.80;0.80;;;40.50;34.80;;;;;;4957915;28;20032;-73
2022/07/12 16:36:19;;;;;;;0.80;0.80;;;38.80;36.30;;;;;;4955994;28;20039;-74
2022/07/12 16:38:44;;;;;;;1.05;0.80;;;37.30;37.70;;;;;;4956106;28;20032;-72
2022/07/12 16:41:38;;;;;;;1.02;0.88;;;35.70;40.80;;;;;;4972251;28;20529;-72
2022/07/12 16:44:30;;;;;;;3.70;0.90;;;34.30;44.90;;;;;;4970539;28;20044;-72
2022/07/12 16:46:55;;;;;;;1.02;0.80;;;32.70;45.50;;;;;;5170893;23;20060;-73
2022/07/12 16:49:21;;;;;;;2.15;0.82;;;32.00;50.40;;;;;;4956147;28;20039;-73
2022/07/12 16:51:47;;;;;;;2.60;0.82;;;31.20;49.40;;;;;;4956104;28;20393;-72
2022/07/12 16:54:13;;;;;;;2.35;0.77;;;30.70;52.80;;;;;;4957698;28;20490;-73
2022/07/12 16:56:38;;;;;;;0.80;0.80;;;30.60;50.40;;;;;;4956218;28;20067;-72
2022/07/12 16:59:04;;;;;;;0.70;0.70;;;30.60;49.40;;;;;;4957688;28;20066;-73
2022/07/12 17:01:30;;;;;;;0.73;0.70;;;30.60;49.00;;;;;;4957158;28;20036;-72
2022/07/12 17:03:55;;;;;;;1.33;0.80;;;30.90;50.60;;;;;;4957166;28;20072;-72
2022/07/12 17:06:21;;;;;;;2.15;0.70;;;30.90;49.60;;;;;;4956587;28;20130;-72